Somerville, Texas
Current Conditions -  °F | °C
As of 4:15 AM on Tuesday 27 Jan 2015 (Local Time) from K11R Reporting Station
Clear Clear  
Wind Chill: 54°   Ceiling: Unl
Heat Index: 54°   Visibility: 10mi
Dew Point: 40°   Wind: 3mph
Humidity: 59%   Direction: 250°WSW
Pressure: 30.13"   Gusts: NA
Location:  30.35°N, 96.53°W
Report Text: K11R 271015Z AUTO 25003KT 10SM CLR 12/04 A3013 RMK AO2 T01220044
Loading
Personal Weather Stations






























Interactive Weather Map New forecast layout! Learn more

10-Day Weather Forecast

Advertisements
Track Severe Weather on mobile